ACA1174 CYYZ-CYDF
Flight info
| Callsign | ACA1174 |
|---|---|
| Flight time | 2h 17m |
| Altitude | 39000 |
| Route | VERDO7 LORKA Q907 MIILS FROSS |
| Aircraft | B38M/M-SDE1FGHILORVWXY/HB1 |
Departure
| Time | 2026-05-04 19:41 |
|---|---|
| Airport | Toronto Pearson International Airport (CYYZ) |
Arrival
| Time | 2026-05-04 21:58 |
|---|---|
| Airport | Deer Lake Airport (CYDF) |
| Time | Latitude | Longitude | Altitude | Speed | Heading |
|---|---|---|---|---|---|
| 2026-05-04 19:13 | 43.68025 | -79.61709 | 573 ft | 0 kts | 136° |
| 2026-05-04 19:30 | 43.68027 | -79.61712 | 583 ft | 2 kts | 136° |
| 2026-05-04 19:30 | 43.68040 | -79.61729 | 573 ft | 3 kts | 136° |
| 2026-05-04 19:30 | 43.68055 | -79.61749 | 570 ft | 3 kts | 136° |
| 2026-05-04 19:31 | 43.68069 | -79.61766 | 573 ft | 3 kts | 153° |
| 2026-05-04 19:31 | 43.68086 | -79.61772 | 571 ft | 3 kts | 190° |
| 2026-05-04 19:31 | 43.68103 | -79.61762 | 568 ft | 3 kts | 219° |
| 2026-05-04 19:31 | 43.68112 | -79.61750 | 572 ft | 0 kts | 226° |
| 2026-05-04 19:35 | 43.68111 | -79.61752 | 572 ft | 1 kts | 226° |
| 2026-05-04 19:35 | 43.68088 | -79.61786 | 572 ft | 9 kts | 226° |
| 2026-05-04 19:35 | 43.68033 | -79.61865 | 566 ft | 13 kts | 226° |
| 2026-05-04 19:36 | 43.67991 | -79.61962 | 564 ft | 12 kts | 256° |
| 2026-05-04 19:36 | 43.67957 | -79.62062 | 573 ft | 11 kts | 267° |
| 2026-05-04 19:36 | 43.68007 | -79.62147 | 564 ft | 13 kts | 317° |
| 2026-05-04 19:36 | 43.68079 | -79.62240 | 564 ft | 16 kts | 315° |
| 2026-05-04 19:37 | 43.68164 | -79.62351 | 567 ft | 19 kts | 317° |
| 2026-05-04 19:37 | 43.68253 | -79.62459 | 566 ft | 17 kts | 320° |
| 2026-05-04 19:37 | 43.68347 | -79.62576 | 567 ft | 19 kts | 316° |
| 2026-05-04 19:37 | 43.68448 | -79.62710 | 567 ft | 21 kts | 316° |
| 2026-05-04 19:38 | 43.68555 | -79.62848 | 569 ft | 22 kts | 316° |
| 2026-05-04 19:38 | 43.68672 | -79.62999 | 566 ft | 24 kts | 316° |
| 2026-05-04 19:38 | 43.68792 | -79.63156 | 564 ft | 21 kts | 316° |
| 2026-05-04 19:38 | 43.68905 | -79.63304 | 566 ft | 23 kts | 316° |
| 2026-05-04 19:39 | 43.69004 | -79.63434 | 566 ft | 20 kts | 316° |
| 2026-05-04 19:39 | 43.69090 | -79.63533 | 571 ft | 13 kts | 350° |
| 2026-05-04 19:39 | 43.69164 | -79.63465 | 569 ft | 14 kts | 47° |
| 2026-05-04 19:39 | 43.69266 | -79.63425 | 571 ft | 17 kts | 3° |
| 2026-05-04 19:40 | 43.69387 | -79.63456 | 572 ft | 19 kts | 319° |
| 2026-05-04 19:40 | 43.69376 | -79.63572 | 568 ft | 15 kts | 225° |
| 2026-05-04 19:40 | 43.69279 | -79.63708 | 564 ft | 33 kts | 225° |
| 2026-05-04 19:40 | 43.68942 | -79.64193 | 571 ft | 104 kts | 226° |
| 2026-05-04 19:41 | 43.68310 | -79.65111 | 663 ft | 152 kts | 224° |
| 2026-05-04 19:41 | 43.67571 | -79.66210 | 1391 ft | 159 kts | 227° |
| 2026-05-04 19:41 | 43.66918 | -79.67406 | 2400 ft | 154 kts | 234° |
| 2026-05-04 19:41 | 43.66279 | -79.68720 | 3000 ft | 175 kts | 235° |
| 2026-05-04 19:42 | 43.65544 | -79.70195 | 3566 ft | 200 kts | 235° |
| 2026-05-04 19:42 | 43.64710 | -79.71833 | 4408 ft | 213 kts | 234° |
| 2026-05-04 19:42 | 43.63569 | -79.73243 | 5237 ft | 234 kts | 211° |
| 2026-05-04 19:42 | 43.61928 | -79.73764 | 6182 ft | 254 kts | 188° |
| 2026-05-04 19:43 | 43.60112 | -79.73462 | 6547 ft | 271 kts | 170° |
| 2026-05-04 19:43 | 43.58392 | -79.72279 | 6666 ft | 285 kts | 149° |
| 2026-05-04 19:43 | 43.57014 | -79.70247 | 6779 ft | 295 kts | 134° |
| 2026-05-04 19:43 | 43.55731 | -79.68043 | 6955 ft | 296 kts | 135° |
| 2026-05-04 19:44 | 43.54431 | -79.65835 | 7006 ft | 296 kts | 135° |
| 2026-05-04 19:44 | 43.53133 | -79.63629 | 6984 ft | 296 kts | 135° |
| 2026-05-04 19:44 | 43.51840 | -79.61419 | 6987 ft | 297 kts | 133° |
| 2026-05-04 19:44 | 43.50909 | -79.58846 | 6966 ft | 307 kts | 107° |
| 2026-05-04 19:45 | 43.50830 | -79.55891 | 6984 ft | 313 kts | 81° |
| 2026-05-04 19:45 | 43.51360 | -79.52977 | 6994 ft | 315 kts | 76° |
| 2026-05-04 19:45 | 43.51921 | -79.50057 | 6992 ft | 315 kts | 76° |
| 2026-05-04 19:45 | 43.52473 | -79.47180 | 6994 ft | 315 kts | 76° |
| 2026-05-04 19:46 | 43.53032 | -79.44263 | 6985 ft | 315 kts | 76° |
| 2026-05-04 19:46 | 43.53785 | -79.41427 | 7279 ft | 315 kts | 61° |
| 2026-05-04 19:46 | 43.54779 | -79.38764 | 8373 ft | 314 kts | 62° |
| 2026-05-04 19:46 | 43.55773 | -79.36050 | 9344 ft | 319 kts | 62° |
| 2026-05-04 19:47 | 43.56774 | -79.33304 | 10275 ft | 323 kts | 62° |
| 2026-05-04 19:47 | 43.57804 | -79.30475 | 10930 ft | 337 kts | 62° |
| 2026-05-04 19:47 | 43.58871 | -79.27536 | 11631 ft | 348 kts | 62° |
| 2026-05-04 19:47 | 43.59238 | -79.26523 | 11905 ft | 350 kts | 62° |
| 2026-05-04 19:48 | 43.60301 | -79.23591 | 12813 ft | 353 kts | 62° |
| 2026-05-04 19:48 | 43.61403 | -79.20548 | 13711 ft | 357 kts | 62° |
| 2026-05-04 19:48 | 43.62514 | -79.17477 | 14502 ft | 361 kts | 62° |
| 2026-05-04 19:48 | 43.63645 | -79.14346 | 15280 ft | 366 kts | 62° |
| 2026-05-04 19:49 | 43.64788 | -79.11179 | 16064 ft | 371 kts | 62° |
| 2026-05-04 19:49 | 43.65948 | -79.07961 | 16817 ft | 377 kts | 61° |
| 2026-05-04 19:49 | 43.67113 | -79.04724 | 17579 ft | 381 kts | 61° |
| 2026-05-04 19:49 | 43.68300 | -79.01424 | 18264 ft | 386 kts | 61° |
| 2026-05-04 19:50 | 43.69501 | -78.98082 | 18895 ft | 391 kts | 61° |
| 2026-05-04 19:50 | 43.70713 | -78.94704 | 19538 ft | 394 kts | 60° |
| 2026-05-04 19:50 | 43.71924 | -78.91324 | 20160 ft | 399 kts | 60° |
| 2026-05-04 19:50 | 43.73156 | -78.87880 | 20766 ft | 403 kts | 60° |
| 2026-05-04 19:51 | 43.74404 | -78.84388 | 21374 ft | 407 kts | 60° |
| 2026-05-04 19:51 | 43.75663 | -78.80862 | 21978 ft | 410 kts | 60° |
| 2026-05-04 19:51 | 43.76938 | -78.77312 | 22569 ft | 413 kts | 57° |
| 2026-05-04 19:51 | 43.78367 | -78.73851 | 23149 ft | 416 kts | 56° |
| 2026-05-04 19:52 | 43.79812 | -78.70353 | 23655 ft | 420 kts | 56° |
| 2026-05-04 19:52 | 43.81253 | -78.66833 | 24164 ft | 422 kts | 56° |
| 2026-05-04 19:52 | 43.82703 | -78.63276 | 24676 ft | 425 kts | 56° |
| 2026-05-04 19:52 | 43.84157 | -78.59702 | 25169 ft | 427 kts | 56° |
| 2026-05-04 19:53 | 43.85619 | -78.56101 | 25655 ft | 430 kts | 56° |
| 2026-05-04 19:53 | 43.87046 | -78.52585 | 26131 ft | 432 kts | 56° |
| 2026-05-04 19:53 | 43.88523 | -78.48938 | 26600 ft | 435 kts | 56° |
| 2026-05-04 19:53 | 43.90005 | -78.45274 | 27066 ft | 437 kts | 56° |
| 2026-05-04 19:54 | 43.91499 | -78.41576 | 27534 ft | 440 kts | 56° |
| 2026-05-04 19:54 | 43.92978 | -78.37910 | 27984 ft | 442 kts | 56° |
| 2026-05-04 19:54 | 43.94484 | -78.34173 | 28429 ft | 445 kts | 56° |
| 2026-05-04 19:54 | 43.95997 | -78.30413 | 28883 ft | 447 kts | 55° |
| 2026-05-04 19:55 | 43.97514 | -78.26640 | 29315 ft | 449 kts | 56° |
| 2026-05-04 19:55 | 43.99040 | -78.22838 | 29743 ft | 452 kts | 56° |
| 2026-05-04 19:55 | 44.00572 | -78.19015 | 30102 ft | 454 kts | 56° |
| 2026-05-04 19:55 | 44.02115 | -78.15161 | 30470 ft | 456 kts | 55° |
| 2026-05-04 19:56 | 44.03657 | -78.11302 | 30844 ft | 458 kts | 55° |
| 2026-05-04 19:56 | 44.05207 | -78.07419 | 31205 ft | 460 kts | 55° |
| 2026-05-04 19:56 | 44.06761 | -78.03523 | 31559 ft | 462 kts | 55° |
| 2026-05-04 19:56 | 44.08320 | -77.99605 | 31910 ft | 463 kts | 55° |
| 2026-05-04 19:57 | 44.09884 | -77.95671 | 32265 ft | 465 kts | 55° |
| 2026-05-04 19:57 | 44.11447 | -77.91733 | 32601 ft | 467 kts | 55° |
| 2026-05-04 19:57 | 44.13001 | -77.87813 | 32943 ft | 468 kts | 54° |
| 2026-05-04 19:57 | 44.14576 | -77.83838 | 33284 ft | 470 kts | 54° |
| 2026-05-04 19:58 | 44.16155 | -77.79843 | 33596 ft | 472 kts | 54° |
| 2026-05-04 19:58 | 44.17741 | -77.75824 | 33894 ft | 474 kts | 54° |
| 2026-05-04 19:58 | 44.19332 | -77.71786 | 34148 ft | 476 kts | 54° |
| 2026-05-04 19:58 | 44.20929 | -77.67729 | 34438 ft | 477 kts | 55° |
| 2026-05-04 19:59 | 44.22523 | -77.63673 | 34771 ft | 477 kts | 55° |
| 2026-05-04 19:59 | 44.24119 | -77.59608 | 35116 ft | 477 kts | 55° |
| 2026-05-04 19:59 | 44.25710 | -77.55549 | 35460 ft | 477 kts | 55° |
| 2026-05-04 19:59 | 44.27281 | -77.51535 | 35776 ft | 477 kts | 55° |
| 2026-05-04 20:00 | 44.28869 | -77.47470 | 36083 ft | 477 kts | 55° |
| 2026-05-04 20:00 | 44.30457 | -77.43402 | 36389 ft | 477 kts | 55° |
| 2026-05-04 20:00 | 44.32045 | -77.39325 | 36700 ft | 477 kts | 56° |
| 2026-05-04 20:00 | 44.33629 | -77.35254 | 36989 ft | 477 kts | 56° |
| 2026-05-04 20:01 | 44.35215 | -77.31172 | 37270 ft | 477 kts | 56° |
| 2026-05-04 20:01 | 44.36798 | -77.27094 | 37541 ft | 478 kts | 56° |
| 2026-05-04 20:01 | 44.38382 | -77.23005 | 37807 ft | 478 kts | 56° |
| 2026-05-04 20:01 | 44.39961 | -77.18921 | 38067 ft | 478 kts | 56° |
| 2026-05-04 20:02 | 44.41543 | -77.14827 | 38331 ft | 478 kts | 56° |
| 2026-05-04 20:02 | 44.43120 | -77.10737 | 38517 ft | 478 kts | 56° |
| 2026-05-04 20:02 | 44.44702 | -77.06630 | 38680 ft | 478 kts | 56° |
| 2026-05-04 20:03 | 44.47858 | -76.98419 | 38717 ft | 478 kts | 57° |
| 2026-05-04 20:03 | 44.50996 | -76.90230 | 38725 ft | 477 kts | 57° |
| 2026-05-04 20:04 | 44.54110 | -76.82078 | 38730 ft | 477 kts | 57° |
| 2026-05-04 20:04 | 44.57241 | -76.73857 | 38722 ft | 477 kts | 57° |
| 2026-05-04 20:05 | 44.60362 | -76.65640 | 38724 ft | 478 kts | 57° |
| 2026-05-04 20:05 | 44.63481 | -76.57405 | 38721 ft | 478 kts | 57° |
| 2026-05-04 20:06 | 44.66597 | -76.49151 | 38717 ft | 478 kts | 57° |
| 2026-05-04 20:06 | 44.69704 | -76.40903 | 38716 ft | 478 kts | 57° |
| 2026-05-04 20:07 | 44.72805 | -76.32647 | 38713 ft | 478 kts | 57° |
| 2026-05-04 20:07 | 44.75907 | -76.24366 | 38714 ft | 478 kts | 57° |
| 2026-05-04 20:08 | 44.78445 | -76.15736 | 38716 ft | 483 kts | 65° |
| 2026-05-04 20:08 | 44.80766 | -76.06863 | 38708 ft | 483 kts | 65° |
| 2026-05-04 20:09 | 44.83074 | -75.97971 | 38707 ft | 483 kts | 66° |
| 2026-05-04 20:09 | 44.85374 | -75.89069 | 38709 ft | 483 kts | 66° |
| 2026-05-04 20:10 | 44.87666 | -75.80162 | 38702 ft | 483 kts | 66° |
| 2026-05-04 20:10 | 44.89950 | -75.71257 | 38706 ft | 483 kts | 66° |
| 2026-05-04 20:11 | 44.92224 | -75.62356 | 38700 ft | 483 kts | 66° |
| 2026-05-04 20:11 | 44.94492 | -75.53443 | 38701 ft | 482 kts | 66° |
| 2026-05-04 20:12 | 44.96752 | -75.44527 | 38705 ft | 482 kts | 66° |
| 2026-05-04 20:12 | 44.99002 | -75.35617 | 38702 ft | 482 kts | 67° |
| 2026-05-04 20:13 | 45.01245 | -75.26698 | 38707 ft | 481 kts | 67° |
| 2026-05-04 20:13 | 45.03466 | -75.17834 | 38711 ft | 481 kts | 67° |
| 2026-05-04 20:14 | 45.05694 | -75.08908 | 38716 ft | 481 kts | 67° |
| 2026-05-04 20:14 | 45.07915 | -74.99977 | 38718 ft | 481 kts | 68° |
| 2026-05-04 20:15 | 45.10126 | -74.91048 | 38716 ft | 481 kts | 68° |
| 2026-05-04 20:15 | 45.12335 | -74.82104 | 38714 ft | 481 kts | 68° |
| 2026-05-04 20:16 | 45.14667 | -74.73228 | 38714 ft | 481 kts | 66° |
| 2026-05-04 20:16 | 45.17047 | -74.64366 | 38708 ft | 481 kts | 66° |
| 2026-05-04 20:17 | 45.19415 | -74.55496 | 38700 ft | 481 kts | 66° |
| 2026-05-04 20:17 | 45.21779 | -74.46605 | 38704 ft | 482 kts | 67° |
| 2026-05-04 20:18 | 45.24138 | -74.37698 | 38706 ft | 482 kts | 67° |
| 2026-05-04 20:18 | 45.26477 | -74.28836 | 38704 ft | 483 kts | 67° |
| 2026-05-04 20:19 | 45.28825 | -74.19902 | 38713 ft | 484 kts | 67° |
| 2026-05-04 20:19 | 45.31166 | -74.10967 | 38710 ft | 483 kts | 67° |
| 2026-05-04 20:20 | 45.33506 | -74.01996 | 38708 ft | 484 kts | 67° |
| 2026-05-04 20:20 | 45.35841 | -73.93013 | 38715 ft | 485 kts | 67° |
| 2026-05-04 20:21 | 45.38169 | -73.84018 | 38703 ft | 485 kts | 67° |
| 2026-05-04 20:21 | 45.41652 | -73.70502 | 38703 ft | 485 kts | 67° |
| 2026-05-04 20:22 | 45.43965 | -73.61481 | 38701 ft | 485 kts | 68° |
| 2026-05-04 20:22 | 45.46256 | -73.52510 | 38727 ft | 485 kts | 68° |
| 2026-05-04 20:23 | 45.48182 | -73.44943 | 38721 ft | 485 kts | 67° |
| 2026-05-04 20:23 | 45.50473 | -73.35910 | 38721 ft | 484 kts | 68° |
| 2026-05-04 20:24 | 45.52755 | -73.26873 | 38723 ft | 484 kts | 68° |
| 2026-05-04 20:24 | 45.55016 | -73.17890 | 38731 ft | 484 kts | 68° |
| 2026-05-04 20:25 | 45.57285 | -73.08836 | 38738 ft | 484 kts | 68° |
| 2026-05-04 20:25 | 45.59542 | -72.99793 | 38747 ft | 484 kts | 68° |
| 2026-05-04 20:26 | 45.61793 | -72.90739 | 38756 ft | 483 kts | 68° |
| 2026-05-04 20:26 | 45.64036 | -72.81682 | 38759 ft | 483 kts | 68° |
| 2026-05-04 20:27 | 45.66270 | -72.72625 | 38761 ft | 483 kts | 68° |
| 2026-05-04 20:27 | 45.68480 | -72.63629 | 38763 ft | 482 kts | 68° |
| 2026-05-04 20:28 | 45.70695 | -72.54579 | 38764 ft | 482 kts | 68° |
| 2026-05-04 20:28 | 45.72902 | -72.45522 | 38766 ft | 482 kts | 68° |
| 2026-05-04 20:29 | 45.75102 | -72.36456 | 38769 ft | 481 kts | 69° |
| 2026-05-04 20:29 | 45.77293 | -72.27397 | 38770 ft | 481 kts | 69° |
| 2026-05-04 20:30 | 45.79474 | -72.18336 | 38772 ft | 481 kts | 69° |
| 2026-05-04 20:30 | 45.81648 | -72.09270 | 38772 ft | 481 kts | 69° |
| 2026-05-04 20:31 | 45.83816 | -72.00193 | 38770 ft | 481 kts | 69° |
| 2026-05-04 20:31 | 45.85975 | -71.91115 | 38774 ft | 481 kts | 69° |
| 2026-05-04 20:32 | 45.88129 | -71.82018 | 38779 ft | 481 kts | 69° |
| 2026-05-04 20:32 | 45.90277 | -71.72912 | 38778 ft | 482 kts | 69° |
| 2026-05-04 20:33 | 45.92405 | -71.63855 | 38780 ft | 482 kts | 69° |
| 2026-05-04 20:33 | 45.94541 | -71.54723 | 38778 ft | 482 kts | 70° |
| 2026-05-04 20:34 | 45.96674 | -71.45568 | 38785 ft | 483 kts | 70° |
| 2026-05-04 20:34 | 45.98798 | -71.36414 | 38773 ft | 483 kts | 70° |
| 2026-05-04 20:35 | 46.00918 | -71.27233 | 38780 ft | 484 kts | 70° |
| 2026-05-04 20:35 | 46.03034 | -71.18036 | 38777 ft | 484 kts | 70° |
| 2026-05-04 20:36 | 46.05142 | -71.08832 | 38780 ft | 485 kts | 70° |
| 2026-05-04 20:36 | 46.07246 | -70.99607 | 38772 ft | 485 kts | 70° |
| 2026-05-04 20:37 | 46.09342 | -70.90378 | 38778 ft | 485 kts | 70° |
| 2026-05-04 20:37 | 46.11435 | -70.81122 | 38767 ft | 485 kts | 70° |
| 2026-05-04 20:38 | 46.13505 | -70.71929 | 38771 ft | 486 kts | 70° |
| 2026-05-04 20:38 | 46.15586 | -70.62656 | 38772 ft | 486 kts | 71° |
| 2026-05-04 20:39 | 46.17662 | -70.53367 | 38769 ft | 486 kts | 71° |
| 2026-05-04 20:39 | 46.19732 | -70.44070 | 38770 ft | 487 kts | 71° |
| 2026-05-04 20:40 | 46.21798 | -70.34749 | 38769 ft | 487 kts | 71° |
| 2026-05-04 20:40 | 46.23844 | -70.25406 | 38763 ft | 488 kts | 72° |
| 2026-05-04 20:41 | 46.25834 | -70.16033 | 38762 ft | 488 kts | 71° |
| 2026-05-04 20:41 | 46.27835 | -70.06638 | 38755 ft | 489 kts | 71° |
| 2026-05-04 20:42 | 46.29829 | -69.97239 | 38757 ft | 489 kts | 72° |
| 2026-05-04 20:42 | 46.31815 | -69.87834 | 38758 ft | 489 kts | 72° |
| 2026-05-04 20:43 | 46.33797 | -69.78408 | 38754 ft | 490 kts | 72° |
| 2026-05-04 20:43 | 46.35759 | -69.69027 | 38753 ft | 490 kts | 72° |
| 2026-05-04 20:44 | 46.37727 | -69.59580 | 38753 ft | 490 kts | 72° |
| 2026-05-04 20:44 | 46.39686 | -69.50130 | 38747 ft | 490 kts | 72° |
| 2026-05-04 20:45 | 46.41642 | -69.40649 | 38747 ft | 490 kts | 72° |
| 2026-05-04 20:45 | 46.43585 | -69.31187 | 38743 ft | 490 kts | 72° |
| 2026-05-04 20:46 | 46.45519 | -69.21722 | 38740 ft | 490 kts | 72° |
| 2026-05-04 20:46 | 46.47447 | -69.12245 | 38745 ft | 490 kts | 72° |
| 2026-05-04 20:47 | 46.49365 | -69.02767 | 38741 ft | 489 kts | 72° |
| 2026-05-04 20:47 | 46.51277 | -68.93278 | 38742 ft | 489 kts | 72° |
| 2026-05-04 20:48 | 46.53166 | -68.83857 | 38740 ft | 489 kts | 72° |
| 2026-05-04 20:48 | 46.55058 | -68.74372 | 38748 ft | 489 kts | 73° |
| 2026-05-04 20:49 | 46.56944 | -68.64874 | 38752 ft | 489 kts | 73° |
| 2026-05-04 20:49 | 46.58821 | -68.55376 | 38769 ft | 489 kts | 73° |
| 2026-05-04 20:50 | 46.60690 | -68.45874 | 38764 ft | 488 kts | 73° |
| 2026-05-04 20:50 | 46.62550 | -68.36366 | 38755 ft | 489 kts | 73° |
| 2026-05-04 20:51 | 46.64405 | -68.26841 | 38740 ft | 489 kts | 73° |
| 2026-05-04 20:51 | 46.66250 | -68.17315 | 38718 ft | 489 kts | 73° |
| 2026-05-04 20:52 | 46.68077 | -68.07840 | 38719 ft | 489 kts | 73° |
| 2026-05-04 20:52 | 46.69911 | -67.98288 | 38718 ft | 490 kts | 73° |
| 2026-05-04 20:53 | 46.71740 | -67.88725 | 38724 ft | 490 kts | 73° |
| 2026-05-04 20:53 | 46.73555 | -67.79168 | 38728 ft | 490 kts | 74° |
| 2026-05-04 20:54 | 46.75361 | -67.69592 | 38725 ft | 489 kts | 74° |
| 2026-05-04 20:54 | 46.77161 | -67.60017 | 38712 ft | 489 kts | 74° |
| 2026-05-04 20:55 | 46.78954 | -67.50438 | 38720 ft | 489 kts | 74° |
| 2026-05-04 20:55 | 46.80738 | -67.40853 | 38715 ft | 489 kts | 74° |
| 2026-05-04 20:56 | 46.82515 | -67.31259 | 38714 ft | 489 kts | 74° |
| 2026-05-04 20:56 | 46.84272 | -67.21721 | 38706 ft | 489 kts | 74° |
| 2026-05-04 20:57 | 46.86033 | -67.12113 | 38700 ft | 489 kts | 74° |
| 2026-05-04 20:57 | 46.87953 | -67.02590 | 38695 ft | 488 kts | 69° |
| 2026-05-04 20:58 | 46.90267 | -66.93258 | 38691 ft | 488 kts | 69° |
| 2026-05-04 20:58 | 46.92595 | -66.83925 | 38684 ft | 488 kts | 69° |
| 2026-05-04 20:59 | 46.94916 | -66.74592 | 38677 ft | 488 kts | 69° |
| 2026-05-04 20:59 | 46.97225 | -66.65264 | 38671 ft | 487 kts | 69° |
| 2026-05-04 21:00 | 46.99515 | -66.55979 | 38663 ft | 487 kts | 69° |
| 2026-05-04 21:00 | 47.01810 | -66.46635 | 38661 ft | 487 kts | 69° |
| 2026-05-04 21:01 | 47.04094 | -66.37294 | 38654 ft | 487 kts | 69° |
| 2026-05-04 21:01 | 47.06373 | -66.27936 | 38649 ft | 487 kts | 69° |
| 2026-05-04 21:02 | 47.08642 | -66.18578 | 38651 ft | 487 kts | 69° |
| 2026-05-04 21:02 | 47.10905 | -66.09211 | 38641 ft | 486 kts | 70° |
| 2026-05-04 21:03 | 47.13159 | -65.99835 | 38644 ft | 487 kts | 70° |
| 2026-05-04 21:03 | 47.15408 | -65.90442 | 38646 ft | 487 kts | 70° |
| 2026-05-04 21:04 | 47.17648 | -65.81049 | 38637 ft | 487 kts | 70° |
| 2026-05-04 21:04 | 47.19881 | -65.71644 | 38630 ft | 488 kts | 70° |
| 2026-05-04 21:05 | 47.22108 | -65.62221 | 38627 ft | 487 kts | 70° |
| 2026-05-04 21:05 | 47.24327 | -65.52795 | 38623 ft | 487 kts | 70° |
| 2026-05-04 21:06 | 47.26520 | -65.43436 | 38620 ft | 486 kts | 70° |
| 2026-05-04 21:06 | 47.28732 | -65.33956 | 38613 ft | 486 kts | 70° |
| 2026-05-04 21:07 | 47.30903 | -65.24611 | 38615 ft | 485 kts | 70° |
| 2026-05-04 21:07 | 47.33079 | -65.15206 | 38615 ft | 484 kts | 71° |
| 2026-05-04 21:08 | 47.35245 | -65.05804 | 38611 ft | 484 kts | 71° |
| 2026-05-04 21:08 | 47.37401 | -64.96399 | 38608 ft | 484 kts | 71° |
| 2026-05-04 21:09 | 47.39548 | -64.86998 | 38606 ft | 484 kts | 71° |
| 2026-05-04 21:09 | 47.41689 | -64.77580 | 38608 ft | 484 kts | 71° |
| 2026-05-04 21:10 | 47.43820 | -64.68162 | 38606 ft | 484 kts | 71° |
| 2026-05-04 21:10 | 47.45587 | -64.60321 | 38607 ft | 484 kts | 71° |
| 2026-05-04 21:11 | 47.47707 | -64.50878 | 38611 ft | 484 kts | 71° |
| 2026-05-04 21:11 | 47.49817 | -64.41437 | 38601 ft | 484 kts | 71° |
| 2026-05-04 21:12 | 47.51921 | -64.31979 | 38591 ft | 484 kts | 72° |
| 2026-05-04 21:12 | 47.54019 | -64.22504 | 38593 ft | 484 kts | 72° |
| 2026-05-04 21:13 | 47.56106 | -64.13039 | 38589 ft | 484 kts | 72° |
| 2026-05-04 21:13 | 47.58189 | -64.03550 | 38587 ft | 484 kts | 72° |
| 2026-05-04 21:14 | 47.60248 | -63.94125 | 38586 ft | 484 kts | 72° |
| 2026-05-04 21:14 | 47.62311 | -63.84635 | 38584 ft | 484 kts | 72° |
| 2026-05-04 21:15 | 47.64369 | -63.75133 | 38580 ft | 484 kts | 72° |
| 2026-05-04 21:15 | 47.66420 | -63.65611 | 38581 ft | 485 kts | 72° |
| 2026-05-04 21:16 | 47.68465 | -63.56079 | 38572 ft | 485 kts | 72° |
| 2026-05-04 21:16 | 47.70504 | -63.46527 | 38571 ft | 486 kts | 73° |
| 2026-05-04 21:17 | 47.72538 | -63.36956 | 38568 ft | 486 kts | 73° |
| 2026-05-04 21:17 | 47.74561 | -63.27388 | 38563 ft | 486 kts | 73° |
| 2026-05-04 21:18 | 47.76579 | -63.17804 | 38561 ft | 486 kts | 73° |
| 2026-05-04 21:18 | 47.78595 | -63.08185 | 38561 ft | 487 kts | 73° |
| 2026-05-04 21:19 | 47.80602 | -62.98558 | 38561 ft | 487 kts | 73° |
| 2026-05-04 21:19 | 47.82587 | -62.88990 | 38558 ft | 488 kts | 73° |
| 2026-05-04 21:20 | 47.84581 | -62.79340 | 38555 ft | 487 kts | 73° |
| 2026-05-04 21:20 | 47.86563 | -62.69691 | 38554 ft | 487 kts | 73° |
| 2026-05-04 21:21 | 47.88537 | -62.60041 | 38552 ft | 487 kts | 74° |
| 2026-05-04 21:21 | 47.90505 | -62.50373 | 38549 ft | 487 kts | 74° |
| 2026-05-04 21:22 | 47.92462 | -62.40709 | 38546 ft | 487 kts | 74° |
| 2026-05-04 21:22 | 47.94412 | -62.31041 | 38538 ft | 486 kts | 74° |
| 2026-05-04 21:23 | 47.96351 | -62.21372 | 38540 ft | 486 kts | 74° |
| 2026-05-04 21:23 | 47.98281 | -62.11698 | 38535 ft | 486 kts | 75° |
| 2026-05-04 21:24 | 48.00203 | -62.02021 | 38531 ft | 486 kts | 75° |
| 2026-05-04 21:24 | 48.02102 | -61.92414 | 38528 ft | 485 kts | 75° |
| 2026-05-04 21:25 | 48.04005 | -61.82733 | 38526 ft | 485 kts | 75° |
| 2026-05-04 21:25 | 48.05902 | -61.73055 | 38521 ft | 485 kts | 75° |
| 2026-05-04 21:26 | 48.07791 | -61.63365 | 38519 ft | 485 kts | 75° |
| 2026-05-04 21:26 | 48.09673 | -61.53670 | 38515 ft | 486 kts | 75° |
| 2026-05-04 21:27 | 48.11549 | -61.43957 | 38510 ft | 486 kts | 75° |
| 2026-05-04 21:27 | 48.13417 | -61.34240 | 38507 ft | 486 kts | 75° |
| 2026-05-04 21:28 | 48.15305 | -61.24516 | 38499 ft | 487 kts | 72° |
| 2026-05-04 21:28 | 48.17693 | -61.15020 | 38498 ft | 488 kts | 70° |
| 2026-05-04 21:29 | 48.20137 | -61.05532 | 38494 ft | 488 kts | 70° |
| 2026-05-04 21:29 | 48.22579 | -60.96039 | 38487 ft | 488 kts | 70° |
| 2026-05-04 21:30 | 48.25003 | -60.86577 | 38485 ft | 489 kts | 70° |
| 2026-05-04 21:30 | 48.27435 | -60.77047 | 38487 ft | 489 kts | 70° |
| 2026-05-04 21:31 | 48.31077 | -60.62699 | 38476 ft | 490 kts | 70° |
| 2026-05-04 21:32 | 48.33496 | -60.53118 | 38472 ft | 490 kts | 70° |
| 2026-05-04 21:32 | 48.35907 | -60.43531 | 38467 ft | 490 kts | 70° |
| 2026-05-04 21:33 | 48.38310 | -60.33935 | 38371 ft | 486 kts | 71° |
| 2026-05-04 21:33 | 48.39479 | -60.29247 | 37763 ft | 485 kts | 70° |
| 2026-05-04 21:33 | 48.40659 | -60.24511 | 37270 ft | 480 kts | 70° |
| 2026-05-04 21:33 | 48.41831 | -60.19796 | 36735 ft | 482 kts | 70° |
| 2026-05-04 21:34 | 48.43008 | -60.15046 | 36180 ft | 486 kts | 70° |
| 2026-05-04 21:34 | 48.44190 | -60.10271 | 35598 ft | 487 kts | 70° |
| 2026-05-04 21:34 | 48.45373 | -60.05483 | 35036 ft | 489 kts | 70° |
| 2026-05-04 21:34 | 48.46556 | -60.00680 | 34456 ft | 487 kts | 70° |
| 2026-05-04 21:35 | 48.47737 | -59.95879 | 33654 ft | 491 kts | 69° |
| 2026-05-04 21:35 | 48.48929 | -59.91021 | 32627 ft | 497 kts | 69° |
| 2026-05-04 21:35 | 48.50129 | -59.86116 | 31802 ft | 498 kts | 69° |
| 2026-05-04 21:35 | 48.51319 | -59.81244 | 31280 ft | 492 kts | 69° |
| 2026-05-04 21:36 | 48.52491 | -59.76434 | 30760 ft | 486 kts | 69° |
| 2026-05-04 21:36 | 48.53650 | -59.71671 | 30149 ft | 483 kts | 69° |
| 2026-05-04 21:36 | 48.54802 | -59.66923 | 29546 ft | 480 kts | 69° |
| 2026-05-04 21:36 | 48.55943 | -59.62210 | 28843 ft | 477 kts | 69° |
| 2026-05-04 21:37 | 48.57075 | -59.57524 | 28236 ft | 472 kts | 69° |
| 2026-05-04 21:37 | 48.58194 | -59.52883 | 27674 ft | 467 kts | 69° |
| 2026-05-04 21:37 | 48.59297 | -59.48299 | 27109 ft | 462 kts | 68° |
| 2026-05-04 21:37 | 48.60389 | -59.43751 | 26547 ft | 458 kts | 68° |
| 2026-05-04 21:38 | 48.61456 | -59.39299 | 25997 ft | 454 kts | 68° |
| 2026-05-04 21:38 | 48.62526 | -59.34828 | 25453 ft | 451 kts | 68° |
| 2026-05-04 21:38 | 48.63586 | -59.30384 | 24910 ft | 448 kts | 68° |
| 2026-05-04 21:38 | 48.64639 | -59.25962 | 24371 ft | 445 kts | 68° |
| 2026-05-04 21:39 | 48.65697 | -59.21513 | 23842 ft | 443 kts | 68° |
| 2026-05-04 21:39 | 48.66721 | -59.17195 | 23328 ft | 440 kts | 68° |
| 2026-05-04 21:39 | 48.67751 | -59.12846 | 22783 ft | 438 kts | 68° |
| 2026-05-04 21:39 | 48.68774 | -59.08516 | 22209 ft | 435 kts | 68° |
| 2026-05-04 21:40 | 48.69787 | -59.04222 | 21718 ft | 431 kts | 68° |
| 2026-05-04 21:40 | 48.70787 | -58.99969 | 21248 ft | 426 kts | 68° |
| 2026-05-04 21:40 | 48.71777 | -58.95756 | 20779 ft | 423 kts | 68° |
| 2026-05-04 21:40 | 48.72755 | -58.91583 | 20320 ft | 419 kts | 68° |
| 2026-05-04 21:41 | 48.73726 | -58.87435 | 19865 ft | 416 kts | 68° |
| 2026-05-04 21:41 | 48.74687 | -58.83321 | 19420 ft | 413 kts | 67° |
| 2026-05-04 21:41 | 48.75640 | -58.79230 | 18984 ft | 410 kts | 67° |
| 2026-05-04 21:41 | 48.76586 | -58.75165 | 18551 ft | 407 kts | 67° |
| 2026-05-04 21:42 | 48.77523 | -58.71130 | 18123 ft | 405 kts | 67° |
| 2026-05-04 21:42 | 48.78454 | -58.67113 | 17698 ft | 403 kts | 67° |
| 2026-05-04 21:42 | 48.79377 | -58.63119 | 17235 ft | 400 kts | 67° |
| 2026-05-04 21:42 | 48.80284 | -58.59192 | 17171 ft | 387 kts | 67° |
| 2026-05-04 21:43 | 48.81169 | -58.55350 | 16858 ft | 389 kts | 67° |
| 2026-05-04 21:43 | 48.82054 | -58.51504 | 16543 ft | 391 kts | 67° |
| 2026-05-04 21:43 | 48.82942 | -58.47641 | 16258 ft | 385 kts | 67° |
| 2026-05-04 21:43 | 48.83819 | -58.43814 | 15882 ft | 383 kts | 67° |
| 2026-05-04 21:44 | 48.84699 | -58.39966 | 15455 ft | 388 kts | 68° |
| 2026-05-04 21:44 | 48.85588 | -58.36077 | 15045 ft | 392 kts | 67° |
| 2026-05-04 21:44 | 48.86481 | -58.32165 | 14615 ft | 392 kts | 68° |
| 2026-05-04 21:44 | 48.87370 | -58.28257 | 14234 ft | 390 kts | 68° |
| 2026-05-04 21:45 | 48.88250 | -58.24380 | 13838 ft | 387 kts | 68° |
| 2026-05-04 21:45 | 48.89125 | -58.20519 | 13433 ft | 385 kts | 68° |
| 2026-05-04 21:45 | 48.89995 | -58.16675 | 13000 ft | 384 kts | 68° |
| 2026-05-04 21:45 | 48.90861 | -58.12843 | 12555 ft | 381 kts | 68° |
| 2026-05-04 21:46 | 48.91717 | -58.09046 | 12147 ft | 378 kts | 68° |
| 2026-05-04 21:46 | 48.92567 | -58.05273 | 11747 ft | 375 kts | 68° |
| 2026-05-04 21:46 | 48.93396 | -58.01580 | 11367 ft | 372 kts | 69° |
| 2026-05-04 21:46 | 48.94229 | -57.97869 | 10980 ft | 370 kts | 69° |
| 2026-05-04 21:47 | 48.95054 | -57.94184 | 10672 ft | 364 kts | 69° |
| 2026-05-04 21:47 | 48.95859 | -57.90585 | 10548 ft | 354 kts | 69° |
| 2026-05-04 21:47 | 48.96640 | -57.87080 | 10406 ft | 345 kts | 69° |
| 2026-05-04 21:47 | 48.97404 | -57.83655 | 10231 ft | 337 kts | 69° |
| 2026-05-04 21:48 | 48.98147 | -57.80321 | 10054 ft | 329 kts | 69° |
| 2026-05-04 21:48 | 48.98881 | -57.77022 | 9727 ft | 327 kts | 69° |
| 2026-05-04 21:48 | 48.99608 | -57.73749 | 9401 ft | 326 kts | 69° |
| 2026-05-04 21:48 | 49.00331 | -57.70487 | 9065 ft | 324 kts | 69° |
| 2026-05-04 21:49 | 49.01050 | -57.67241 | 8724 ft | 322 kts | 69° |
| 2026-05-04 21:49 | 49.01761 | -57.64022 | 8404 ft | 319 kts | 69° |
| 2026-05-04 21:49 | 49.02457 | -57.60868 | 8101 ft | 317 kts | 69° |
| 2026-05-04 21:49 | 49.03155 | -57.57702 | 7794 ft | 314 kts | 69° |
| 2026-05-04 21:50 | 49.03785 | -57.54523 | 7505 ft | 312 kts | 69° |
| 2026-05-04 21:50 | 49.04500 | -57.51405 | 7186 ft | 311 kts | 68° |
| 2026-05-04 21:50 | 49.05197 | -57.48331 | 7060 ft | 301 kts | 69° |
| 2026-05-04 21:50 | 49.06049 | -57.45494 | 6849 ft | 290 kts | 49° |
| 2026-05-04 21:51 | 49.07373 | -57.43205 | 6490 ft | 288 kts | 41° |
| 2026-05-04 21:51 | 49.08740 | -57.40954 | 6150 ft | 288 kts | 41° |
| 2026-05-04 21:51 | 49.10099 | -57.38720 | 5794 ft | 285 kts | 41° |
| 2026-05-04 21:51 | 49.11425 | -57.36545 | 5432 ft | 276 kts | 41° |
| 2026-05-04 21:52 | 49.12712 | -57.34434 | 5095 ft | 267 kts | 41° |
| 2026-05-04 21:52 | 49.13963 | -57.32383 | 4770 ft | 260 kts | 41° |
| 2026-05-04 21:52 | 49.15182 | -57.30382 | 4461 ft | 254 kts | 41° |
| 2026-05-04 21:52 | 49.16379 | -57.28417 | 4162 ft | 253 kts | 41° |
| 2026-05-04 21:53 | 49.17568 | -57.26460 | 3883 ft | 249 kts | 41° |
| 2026-05-04 21:53 | 49.18736 | -57.24536 | 3588 ft | 244 kts | 42° |
| 2026-05-04 21:53 | 49.19922 | -57.22770 | 3365 ft | 232 kts | 31° |
| 2026-05-04 21:53 | 49.21293 | -57.21643 | 3042 ft | 213 kts | 9° |
| 2026-05-04 21:54 | 49.22648 | -57.21362 | 2760 ft | 186 kts | 347° |
| 2026-05-04 21:54 | 49.23863 | -57.21724 | 2531 ft | 173 kts | 330° |
| 2026-05-04 21:54 | 49.24890 | -57.22536 | 2339 ft | 165 kts | 315° |
| 2026-05-04 21:54 | 49.25721 | -57.23700 | 2198 ft | 160 kts | 301° |
| 2026-05-04 21:55 | 49.26304 | -57.25113 | 2079 ft | 155 kts | 287° |
| 2026-05-04 21:55 | 49.26618 | -57.26669 | 1920 ft | 151 kts | 274° |
| 2026-05-04 21:55 | 49.26666 | -57.28256 | 1733 ft | 148 kts | 262° |
| 2026-05-04 21:55 | 49.26458 | -57.29790 | 1543 ft | 146 kts | 250° |
| 2026-05-04 21:56 | 49.26037 | -57.31161 | 1339 ft | 140 kts | 238° |
| 2026-05-04 21:56 | 49.25434 | -57.32326 | 1216 ft | 140 kts | 226° |
| 2026-05-04 21:56 | 49.24755 | -57.33322 | 1005 ft | 132 kts | 225° |
| 2026-05-04 21:56 | 49.24123 | -57.34309 | 765 ft | 129 kts | 225° |
| 2026-05-04 21:57 | 49.23508 | -57.35292 | 573 ft | 127 kts | 225° |
| 2026-05-04 21:57 | 49.22902 | -57.36256 | 402 ft | 125 kts | 225° |
| 2026-05-04 21:57 | 49.22296 | -57.37245 | 259 ft | 128 kts | 224° |
| 2026-05-04 21:57 | 49.21695 | -57.38209 | 124 ft | 122 kts | 225° |
| 2026-05-04 21:58 | 49.21136 | -57.39095 | 57 ft | 106 kts | 225° |
| 2026-05-04 21:58 | 49.20724 | -57.39747 | 54 ft | 53 kts | 226° |
| 2026-05-04 21:58 | 49.20578 | -57.39982 | 55 ft | 8 kts | 227° |
| 2026-05-04 21:58 | 49.20555 | -57.40042 | 56 ft | 5 kts | 232° |
| 2026-05-04 21:59 | 49.20546 | -57.40048 | 51 ft | 1 kts | 176° |
| 2026-05-04 21:59 | 49.20538 | -57.40027 | 53 ft | 1 kts | 98° |
| 2026-05-04 21:59 | 49.20595 | -57.39952 | 54 ft | 16 kts | 45° |
| 2026-05-04 21:59 | 49.20675 | -57.39826 | 53 ft | 15 kts | 45° |
| 2026-05-04 22:00 | 49.20717 | -57.39761 | 55 ft | 12 kts | 40° |
| 2026-05-04 22:00 | 49.20790 | -57.39803 | 52 ft | 8 kts | 319° |
| 2026-05-04 22:00 | 49.20841 | -57.39871 | 57 ft | 10 kts | 333° |
| 2026-05-04 22:00 | 49.20883 | -57.39860 | 57 ft | 9 kts | 35° |
| 2026-05-04 22:01 | 49.20925 | -57.39798 | 57 ft | 6 kts | 30° |
| 2026-05-04 22:01 | 49.20950 | -57.39810 | 57 ft | 3 kts | 322° |
| 2026-05-04 22:01 | 49.20967 | -57.39832 | 57 ft | 3 kts | 317° |
| 2026-05-04 22:01 | 49.20970 | -57.39836 | 57 ft | 0 kts | 317° |